createdAt,value
2022-10-23T00:00:13.286Z,5.03
2022-10-23T00:02:40.878Z,4.10
2022-10-23T00:05:09.933Z,4.23
2022-10-23T00:07:37.010Z,4.20
2022-10-23T00:10:04.434Z,4.83
2022-10-23T00:12:31.796Z,4.10
2022-10-23T00:14:58.889Z,5.00
2022-10-23T00:17:25.992Z,4.60
2022-10-23T00:19:53.101Z,4.23
2022-10-23T00:22:21.591Z,4.13
2022-10-23T00:24:48.669Z,5.10
2022-10-23T00:27:15.782Z,5.00
2022-10-23T00:29:44.539Z,4.77
2022-10-23T00:32:11.771Z,4.23
2022-10-23T00:34:38.872Z,4.60
2022-10-23T00:37:05.957Z,3.40
2022-10-23T00:39:34.599Z,3.60
2022-10-23T00:42:01.676Z,4.10
2022-10-23T00:44:52.769Z,3.97
2022-10-23T00:47:19.899Z,3.73
2022-10-23T00:49:46.988Z,3.97
2022-10-23T00:52:14.568Z,4.10
2022-10-23T00:54:43.826Z,4.20
2022-10-23T00:57:12.708Z,4.60
2022-10-23T00:59:39.913Z,4.73
2022-10-23T01:02:07.237Z,4.50
2022-10-23T01:04:34.766Z,5.30
2022-10-23T01:07:04.228Z,4.50
2022-10-23T01:09:33.129Z,4.60
2022-10-23T01:12:09.126Z,4.60
2022-10-23T01:14:38.554Z,4.80
2022-10-23T01:17:07.592Z,5.57
2022-10-23T01:19:45.387Z,4.10
2022-10-23T01:22:19.402Z,4.20
2022-10-23T01:24:51.702Z,4.03
2022-10-23T01:27:23.191Z,3.53
2022-10-23T01:29:54.841Z,4.50
2022-10-23T01:32:32.645Z,4.20
2022-10-23T01:35:02.922Z,4.80
2022-10-23T01:37:35.573Z,4.40
2022-10-23T01:40:05.957Z,4.17
2022-10-23T01:42:39.662Z,4.63
2022-10-23T01:45:09.725Z,4.57
2022-10-23T01:47:43.037Z,3.90
2022-10-23T01:50:13.196Z,3.93
2022-10-23T01:52:42.541Z,3.77
2022-10-23T01:55:11.090Z,3.63
2022-10-23T01:57:41.045Z,3.63
2022-10-23T02:00:13.083Z,3.30
2022-10-23T02:02:52.492Z,4.03
2022-10-23T02:05:22.671Z,3.50
2022-10-23T02:07:49.820Z,4.03
2022-10-23T02:10:17.631Z,4.60
2022-10-23T02:12:49.537Z,4.27
2022-10-23T02:15:20.410Z,4.03
2022-10-23T02:17:51.543Z,4.10
2022-10-23T02:20:21.294Z,4.30
2022-10-23T02:22:53.557Z,3.47
2022-10-23T02:25:23.579Z,3.53
2022-10-23T02:27:55.136Z,4.80
2022-10-23T02:30:25.037Z,4.27
2022-10-23T02:33:05.698Z,3.87
2022-10-23T02:35:32.788Z,4.43
2022-10-23T02:38:23.643Z,4.30
2022-10-23T02:40:51.043Z,3.97
2022-10-23T02:43:24.746Z,3.73
2022-10-23T02:45:56.689Z,3.33
2022-10-23T02:48:25.690Z,4.27
2022-10-23T02:50:56.852Z,3.80
2022-10-23T02:53:28.449Z,3.63
2022-10-23T02:56:01.777Z,3.70
2022-10-23T02:58:34.657Z,3.40
2022-10-23T03:01:03.926Z,3.40
2022-10-23T03:03:33.329Z,3.93
2022-10-23T03:06:00.460Z,3.30
2022-10-23T03:08:28.441Z,3.90
2022-10-23T03:10:56.291Z,4.53
2022-10-23T03:13:24.076Z,2.83
2022-10-23T03:15:52.538Z,3.83
2022-10-23T03:18:19.638Z,3.13
2022-10-23T03:20:50.277Z,3.47
2022-10-23T03:23:17.372Z,3.37
2022-10-23T03:25:44.472Z,3.03
2022-10-23T03:28:23.189Z,4.20
2022-10-23T03:30:50.332Z,4.40
2022-10-23T03:33:18.817Z,4.00
2022-10-23T03:35:45.908Z,4.40
2022-10-23T03:38:15.506Z,4.30
2022-10-23T03:40:43.092Z,4.20
2022-10-23T03:43:11.197Z,4.70
2022-10-23T03:45:38.366Z,4.30
2022-10-23T03:48:05.445Z,4.03
2022-10-23T03:50:36.676Z,3.17
2022-10-23T03:53:05.575Z,3.83
2022-10-23T03:55:34.471Z,3.10
2022-10-23T03:58:01.597Z,3.40
2022-10-23T04:00:28.731Z,3.73
2022-10-23T04:02:55.870Z,3.17
2022-10-23T04:05:23.421Z,4.07
2022-10-23T04:07:57.217Z,3.17
2022-10-23T04:10:24.275Z,3.97
2022-10-23T04:12:51.407Z,3.67
2022-10-23T04:15:18.523Z,3.20
2022-10-23T04:17:46.735Z,4.00
2022-10-23T04:20:14.177Z,3.10
2022-10-23T04:22:41.511Z,3.17
2022-10-23T04:25:11.725Z,3.73
2022-10-23T04:27:39.127Z,3.77
2022-10-23T04:30:06.819Z,3.00
2022-10-23T04:32:33.936Z,2.97
2022-10-23T04:35:01.051Z,3.10
2022-10-23T04:37:30.406Z,3.43
2022-10-23T04:39:57.474Z,3.90
2022-10-23T04:45:00.505Z,3.93
2022-10-23T04:47:28.156Z,2.83
2022-10-23T04:49:59.743Z,4.30
2022-10-23T04:52:55.663Z,5.00
2022-10-23T04:55:56.150Z,3.10
2022-10-23T04:58:45.405Z,3.17
2022-10-23T05:01:12.641Z,3.60
2022-10-23T05:03:39.878Z,3.30
2022-10-23T05:06:07.391Z,3.30
2022-10-23T05:08:57.468Z,3.20
2022-10-23T05:11:50.981Z,3.20
2022-10-23T05:14:22.094Z,2.80
2022-10-23T05:16:52.545Z,3.27
2022-10-23T05:19:24.191Z,3.50
2022-10-23T05:21:51.921Z,3.30
2022-10-23T05:24:19.728Z,3.67
2022-10-23T05:26:55.666Z,2.57
2022-10-23T05:29:24.644Z,2.90
2022-10-23T05:31:54.527Z,3.70
2022-10-23T05:34:23.332Z,3.13
2022-10-23T05:36:50.687Z,3.47
2022-10-23T05:39:18.182Z,3.60
2022-10-23T05:41:46.211Z,3.33
2022-10-23T05:44:19.465Z,3.00
2022-10-23T05:46:57.169Z,3.03
2022-10-23T05:49:42.742Z,2.43
2022-10-23T05:52:27.826Z,3.70
2022-10-23T05:55:18.199Z,3.17
2022-10-23T05:57:56.295Z,3.43
2022-10-23T06:00:49.221Z,3.80
2022-10-23T06:03:38.352Z,3.20
2022-10-23T06:06:09.754Z,4.30
2022-10-23T06:08:48.892Z,3.13
2022-10-23T06:11:17.443Z,2.90
2022-10-23T06:13:52.835Z,2.70
2022-10-23T06:16:21.969Z,3.43
2022-10-23T06:18:50.708Z,3.33
2022-10-23T06:21:18.867Z,3.00
2022-10-23T06:23:48.699Z,2.70
2022-10-23T06:26:51.053Z,2.93
2022-10-23T06:29:26.199Z,2.83
2022-10-23T06:31:54.093Z,2.67
2022-10-23T06:34:22.556Z,3.23
2022-10-23T06:36:49.702Z,2.63
2022-10-23T06:39:33.983Z,3.60
2022-10-23T06:42:10.315Z,2.83
2022-10-23T06:44:52.377Z,2.67
2022-10-23T06:47:38.912Z,3.70
2022-10-23T06:50:15.494Z,3.30
2022-10-23T06:52:47.351Z,2.90
2022-10-23T06:55:17.354Z,2.50
2022-10-23T06:57:44.834Z,2.77
2022-10-23T07:00:13.035Z,2.57
2022-10-23T07:02:48.226Z,3.00
2022-10-23T07:05:17.113Z,3.90
2022-10-23T07:07:44.349Z,2.57
2022-10-23T07:12:51.887Z,3.17
2022-10-23T07:15:36.255Z,2.43
2022-10-23T07:18:04.679Z,3.10
2022-10-23T07:20:48.375Z,2.93
2022-10-23T07:23:15.800Z,2.93
2022-10-23T07:25:43.115Z,3.00
2022-10-23T07:28:10.264Z,2.83
2022-10-23T07:30:37.508Z,2.20
2022-10-23T07:33:04.683Z,2.77
2022-10-23T07:35:39.486Z,2.73
2022-10-23T07:38:13.879Z,2.67
2022-10-23T07:40:45.006Z,2.40
2022-10-23T07:43:14.964Z,3.50
2022-10-23T07:45:42.134Z,2.60
2022-10-23T07:48:17.527Z,2.20
2022-10-23T07:50:58.976Z,2.37
2022-10-23T07:53:27.501Z,2.17
2022-10-23T07:56:00.118Z,2.23
2022-10-23T07:58:40.121Z,2.27
2022-10-23T08:01:18.646Z,2.47
2022-10-23T08:03:46.559Z,2.10
2022-10-23T08:06:13.741Z,2.07
2022-10-23T08:08:42.516Z,2.27
2022-10-23T08:11:11.631Z,1.90
2022-10-23T08:13:46.133Z,2.20
2022-10-23T08:16:13.242Z,2.40
2022-10-23T08:18:59.046Z,2.40
2022-10-23T08:21:26.439Z,2.00
2022-10-23T08:23:55.967Z,2.03
2022-10-23T08:26:23.334Z,2.33
2022-10-23T08:28:50.731Z,1.63
2022-10-23T08:31:19.620Z,2.30
2022-10-23T08:34:07.459Z,2.20
2022-10-23T08:36:34.569Z,2.30
2022-10-23T08:39:03.100Z,2.10
2022-10-23T08:41:32.775Z,1.87
2022-10-23T08:44:13.370Z,1.90
2022-10-23T08:46:45.409Z,2.17
2022-10-23T08:49:40.785Z,2.53
2022-10-23T08:52:16.462Z,1.97
2022-10-23T08:54:58.451Z,1.87
2022-10-23T08:57:28.236Z,2.13
2022-10-23T08:59:56.892Z,2.70
2022-10-23T09:02:26.634Z,2.00
2022-10-23T09:04:54.910Z,2.00
2022-10-23T09:07:27.561Z,2.10
2022-10-23T09:09:59.502Z,1.90
2022-10-23T09:12:30.072Z,2.17
2022-10-23T09:15:02.857Z,2.27
2022-10-23T09:17:31.244Z,1.90
2022-10-23T09:20:01.038Z,1.67
2022-10-23T09:22:28.369Z,2.10
2022-10-23T09:24:55.472Z,2.00
2022-10-23T09:27:22.623Z,1.97
2022-10-23T09:29:52.062Z,2.33
2022-10-23T09:32:19.504Z,2.00
2022-10-23T09:34:54.044Z,2.17
2022-10-23T09:37:22.891Z,1.83
2022-10-23T09:39:50.171Z,2.17
2022-10-23T09:42:22.470Z,1.80
2022-10-23T09:44:51.954Z,2.47
2022-10-23T09:47:20.960Z,2.30
2022-10-23T09:49:48.792Z,2.40
2022-10-23T09:52:23.322Z,2.33
2022-10-23T09:54:52.110Z,2.10
2022-10-23T09:57:23.038Z,1.83
2022-10-23T09:59:53.488Z,2.03
2022-10-23T10:02:25.592Z,1.60
2022-10-23T10:05:21.841Z,1.70
2022-10-23T10:07:54.747Z,2.20
2022-10-23T10:10:21.870Z,2.20
2022-10-23T10:12:50.489Z,1.60
2022-10-23T10:15:23.368Z,1.93
2022-10-23T10:17:55.145Z,1.90
2022-10-23T10:20:48.455Z,2.00
2022-10-23T10:23:19.230Z,2.10
2022-10-23T10:25:52.039Z,1.93
2022-10-23T10:28:27.377Z,1.83
2022-10-23T10:31:00.962Z,1.93
2022-10-23T10:33:31.583Z,1.50
2022-10-23T10:36:01.103Z,2.17
2022-10-23T10:38:35.461Z,1.83
2022-10-23T10:41:27.786Z,2.10
2022-10-23T10:43:59.266Z,1.63
2022-10-23T10:46:31.821Z,1.70
2022-10-23T10:49:00.592Z,2.00
2022-10-23T10:51:30.152Z,1.83
2022-10-23T10:54:07.099Z,1.80
2022-10-23T10:56:35.464Z,1.60
2022-10-23T10:59:04.276Z,1.50
2022-10-23T11:01:35.782Z,2.03
2022-10-23T11:04:07.227Z,2.13
2022-10-23T11:06:36.001Z,2.57
2022-10-23T11:09:19.870Z,1.70
2022-10-23T11:11:47.887Z,2.00
2022-10-23T11:14:16.056Z,1.60
2022-10-23T11:16:47.038Z,1.90
2022-10-23T11:19:17.728Z,1.63
2022-10-23T11:21:45.485Z,1.90
2022-10-23T11:24:31.595Z,2.27
2022-10-23T11:27:06.905Z,2.40
2022-10-23T11:29:44.431Z,1.97
2022-10-23T11:32:37.095Z,1.40
2022-10-23T11:35:09.039Z,1.40
2022-10-23T11:37:36.207Z,1.83
2022-10-23T11:40:13.905Z,1.90
2022-10-23T11:42:47.460Z,1.60
2022-10-23T11:45:28.311Z,1.87
2022-10-23T11:47:58.591Z,2.03
2022-10-23T11:50:30.517Z,1.50
2022-10-23T11:53:13.693Z,2.17
2022-10-23T11:55:56.770Z,1.90
2022-10-23T11:58:24.675Z,1.60
2022-10-23T12:00:54.540Z,1.83
2022-10-23T12:03:25.050Z,2.10
2022-10-23T12:05:57.908Z,1.53
2022-10-23T12:08:27.319Z,2.47
2022-10-23T12:10:54.807Z,2.27
2022-10-23T12:13:33.016Z,1.90
2022-10-23T12:16:01.229Z,1.70
2022-10-23T12:18:29.977Z,1.57
2022-10-23T12:20:57.980Z,1.97
2022-10-23T12:23:33.881Z,1.40
2022-10-23T12:26:15.878Z,1.77
2022-10-23T12:28:46.527Z,2.03
2022-10-23T12:31:25.676Z,1.70
2022-10-23T12:33:58.057Z,2.17
2022-10-23T12:36:31.559Z,1.70
2022-10-23T12:38:58.728Z,2.43
2022-10-23T12:41:26.538Z,1.80
2022-10-23T12:43:55.359Z,2.40
2022-10-23T12:46:33.079Z,2.23
2022-10-23T12:49:02.173Z,1.93
2022-10-23T12:51:30.199Z,2.63
2022-10-23T12:53:57.443Z,1.47
2022-10-23T12:56:25.466Z,2.10
2022-10-23T12:58:54.176Z,2.13
2022-10-23T13:01:26.322Z,1.73
2022-10-23T13:03:57.121Z,2.57
2022-10-23T13:06:25.889Z,2.60
2022-10-23T13:08:53.090Z,2.07
2022-10-23T13:11:46.479Z,1.90
2022-10-23T13:14:29.194Z,2.13
2022-10-23T13:16:59.319Z,2.70
2022-10-23T13:19:26.391Z,2.23
2022-10-23T13:21:54.836Z,2.93
2022-10-23T13:24:22.947Z,1.93
2022-10-23T13:26:50.097Z,2.00
2022-10-23T13:29:20.044Z,2.57
2022-10-23T13:31:47.441Z,1.60
2022-10-23T13:34:17.504Z,2.03
2022-10-23T13:36:53.576Z,2.00
2022-10-23T13:39:25.249Z,2.47
2022-10-23T13:41:52.324Z,2.53
2022-10-23T13:44:20.946Z,1.87
2022-10-23T13:46:48.204Z,2.00
2022-10-23T13:49:15.371Z,2.27
2022-10-23T13:51:46.618Z,2.17
2022-10-23T13:54:15.285Z,2.20
2022-10-23T13:56:44.076Z,2.90
2022-10-23T13:59:11.940Z,1.73
2022-10-23T14:01:39.437Z,1.80
2022-10-23T14:04:06.905Z,2.20
2022-10-23T14:06:34.508Z,2.40
2022-10-23T14:09:01.615Z,2.67
2022-10-23T14:11:28.699Z,2.50
2022-10-23T14:13:57.129Z,2.27
2022-10-23T14:16:24.219Z,2.13
2022-10-23T14:18:51.358Z,2.60
2022-10-23T14:21:19.307Z,2.43
2022-10-23T14:23:46.421Z,2.00
2022-10-23T14:26:14.638Z,2.07
2022-10-23T14:28:41.776Z,2.47
2022-10-23T14:31:10.977Z,2.70
2022-10-23T14:33:38.080Z,2.60
2022-10-23T14:36:05.425Z,2.10
2022-10-23T14:38:32.545Z,3.00
2022-10-23T14:40:59.668Z,2.93
2022-10-23T14:43:26.808Z,2.00
2022-10-23T14:45:53.901Z,2.47
2022-10-23T14:48:22.360Z,2.47
2022-10-23T14:50:49.761Z,2.43
2022-10-23T14:53:17.373Z,2.80
2022-10-23T14:55:44.508Z,2.43
2022-10-23T14:58:11.598Z,2.43
2022-10-23T15:00:38.671Z,2.60
2022-10-23T15:03:05.779Z,2.27
2022-10-23T15:05:34.204Z,2.53
2022-10-23T15:08:01.304Z,2.73
2022-10-23T15:10:28.440Z,2.87
2022-10-23T15:12:55.494Z,2.80
2022-10-23T15:15:22.597Z,3.07
2022-10-23T15:17:49.671Z,2.93
2022-10-23T15:20:16.897Z,3.30
2022-10-23T15:22:45.599Z,2.70
2022-10-23T15:25:16.941Z,2.73
2022-10-23T15:27:45.462Z,2.50
2022-10-23T15:30:13.033Z,2.57
2022-10-23T15:32:40.115Z,2.73
2022-10-23T15:35:07.487Z,2.80
2022-10-23T15:37:34.562Z,3.27
2022-10-23T15:40:03.005Z,3.17
2022-10-23T15:42:30.109Z,3.20
2022-10-23T15:44:57.222Z,3.07
2022-10-23T15:47:24.308Z,3.20
2022-10-23T15:49:51.400Z,2.77
2022-10-23T15:52:18.494Z,2.53
2022-10-23T15:54:45.626Z,3.00
2022-10-23T15:57:14.053Z,3.50
2022-10-23T15:59:41.194Z,3.53
2022-10-23T16:02:08.358Z,3.67
2022-10-23T16:04:35.522Z,3.57
2022-10-23T16:07:02.640Z,3.33
2022-10-23T16:09:30.029Z,3.87
2022-10-23T16:11:57.118Z,3.47
2022-10-23T16:14:25.602Z,3.03
2022-10-23T16:16:52.693Z,3.20
2022-10-23T16:19:19.780Z,3.40
2022-10-23T16:21:46.868Z,3.30
2022-10-23T16:24:13.980Z,4.23
2022-10-23T16:26:41.434Z,4.13
2022-10-23T16:29:09.675Z,4.00
2022-10-23T16:31:38.120Z,4.37
2022-10-23T16:34:05.602Z,3.67
2022-10-23T16:36:33.669Z,4.00
2022-10-23T16:39:20.937Z,3.73
2022-10-23T16:42:06.612Z,3.50
2022-10-23T16:44:53.711Z,3.50
2022-10-23T16:47:22.175Z,4.07
2022-10-23T16:49:49.280Z,4.00
2022-10-23T16:52:16.409Z,3.80
2022-10-23T16:54:43.519Z,4.10
2022-10-23T16:57:10.623Z,4.57
2022-10-23T16:59:37.762Z,4.77
2022-10-23T17:02:05.118Z,5.53
2022-10-23T17:04:33.697Z,3.90
2022-10-23T17:07:00.808Z,4.53
2022-10-23T17:09:27.924Z,4.60
2022-10-23T17:11:55.019Z,5.43
2022-10-23T17:14:22.116Z,4.53
2022-10-23T17:16:50.587Z,5.50
2022-10-23T17:19:46.478Z,4.97
2022-10-23T17:22:07.451Z,4.60
2022-10-23T17:24:34.552Z,4.97
2022-10-23T17:27:01.640Z,4.43
2022-10-23T17:29:28.754Z,4.93
2022-10-23T17:31:55.902Z,5.03
2022-10-23T17:34:23.469Z,4.90
2022-10-23T17:36:52.210Z,4.30
2022-10-23T17:39:21.348Z,4.23
2022-10-23T17:41:48.638Z,3.97
2022-10-23T17:44:15.923Z,4.80
2022-10-23T17:46:43.010Z,4.50
2022-10-23T17:49:10.585Z,4.23
2022-10-23T17:51:37.718Z,3.80
2022-10-23T17:54:05.909Z,5.10
2022-10-23T17:56:35.369Z,4.90
2022-10-23T17:59:04.234Z,4.17
2022-10-23T18:01:31.706Z,3.93
2022-10-23T18:04:00.874Z,4.80
2022-10-23T18:06:29.810Z,4.83
2022-10-23T18:08:57.124Z,4.30
2022-10-23T18:11:25.278Z,3.60
2022-10-23T18:13:54.254Z,3.50
2022-10-23T18:16:21.470Z,3.93
2022-10-23T18:18:49.053Z,4.23
2022-10-23T18:21:17.338Z,3.63
2022-10-23T18:23:44.667Z,4.40
2022-10-23T18:26:13.941Z,3.87
2022-10-23T18:28:41.012Z,3.30
2022-10-23T18:31:10.232Z,4.00
2022-10-23T18:33:37.326Z,3.47
2022-10-23T18:36:04.711Z,3.70
2022-10-23T18:38:31.795Z,2.90
2022-10-23T18:40:59.866Z,3.50
2022-10-23T18:43:42.548Z,3.80
2022-10-23T18:46:11.759Z,3.60
2022-10-23T18:48:38.927Z,3.70
2022-10-23T18:51:06.127Z,3.80
2022-10-23T18:53:33.240Z,3.80
2022-10-23T18:56:00.318Z,3.20
2022-10-23T18:58:27.419Z,4.13
2022-10-23T19:00:54.499Z,3.33
2022-10-23T19:03:22.951Z,3.33
2022-10-23T19:05:50.037Z,3.60
2022-10-23T19:08:17.156Z,3.70
2022-10-23T19:10:44.530Z,2.67
2022-10-23T19:13:11.647Z,3.07
2022-10-23T19:15:38.738Z,3.77
2022-10-23T19:18:07.196Z,2.90
2022-10-23T19:20:36.057Z,2.97
2022-10-23T19:23:03.520Z,2.77
2022-10-23T19:25:31.930Z,3.60
2022-10-23T19:27:59.383Z,2.73
2022-10-23T19:30:26.649Z,2.97
2022-10-23T19:32:54.181Z,3.47
2022-10-23T19:35:22.134Z,3.00
2022-10-23T19:37:50.537Z,3.47
2022-10-23T19:40:17.760Z,2.83
2022-10-23T19:42:44.914Z,3.03
2022-10-23T19:45:13.265Z,3.10
2022-10-23T19:47:40.636Z,3.03
2022-10-23T19:50:08.482Z,2.93
2022-10-23T19:52:35.588Z,3.20
2022-10-23T19:55:04.156Z,3.40
2022-10-23T19:57:31.398Z,3.83
2022-10-23T19:59:58.505Z,3.00
2022-10-23T20:02:25.783Z,3.10
2022-10-23T20:04:53.067Z,3.57
2022-10-23T20:07:20.140Z,2.80
2022-10-23T20:09:47.248Z,3.20
2022-10-23T20:12:15.802Z,3.20
2022-10-23T20:14:42.899Z,3.37
2022-10-23T20:17:09.961Z,4.17
2022-10-23T20:19:37.199Z,3.23
2022-10-23T20:22:04.296Z,2.83
2022-10-23T20:24:31.383Z,2.97
2022-10-23T20:26:58.460Z,3.00
2022-10-23T20:29:26.906Z,2.90
2022-10-23T20:31:54.110Z,3.03
2022-10-23T20:34:21.183Z,2.60
2022-10-23T20:36:49.289Z,3.50
2022-10-23T20:42:06.037Z,3.00
2022-10-23T20:44:35.405Z,2.70
2022-10-23T20:47:02.537Z,3.50
2022-10-23T20:49:29.716Z,3.30
2022-10-23T20:51:57.317Z,3.03
2022-10-23T20:54:24.613Z,3.57
2022-10-23T20:56:51.989Z,2.80
2022-10-23T20:59:19.737Z,3.27
2022-10-23T21:01:49.131Z,3.40
2022-10-23T21:04:17.851Z,2.60
2022-10-23T21:07:07.937Z,3.87
2022-10-23T21:09:32.086Z,3.20
2022-10-23T21:11:59.201Z,3.07
2022-10-23T21:14:26.305Z,2.83
2022-10-23T21:16:54.776Z,3.40
2022-10-23T21:19:21.887Z,2.87
2022-10-23T21:21:49.007Z,4.10
2022-10-23T21:24:16.906Z,4.20
2022-10-23T21:26:44.542Z,3.83
2022-10-23T21:29:20.129Z,2.83
2022-10-23T21:31:51.821Z,2.80
2022-10-23T21:34:20.298Z,3.43
2022-10-23T21:39:34.542Z,3.40
2022-10-23T21:42:01.653Z,3.63
2022-10-23T21:44:28.767Z,2.90
2022-10-23T21:46:55.874Z,2.93
2022-10-23T21:49:24.354Z,3.90
2022-10-23T21:51:51.461Z,4.60
2022-10-23T21:54:18.814Z,3.53
2022-10-23T21:56:46.676Z,4.17
2022-10-23T21:59:14.476Z,4.13
2022-10-23T22:01:42.269Z,3.60
2022-10-23T22:04:09.472Z,3.70
2022-10-23T22:06:38.677Z,4.50
2022-10-23T22:09:06.084Z,4.83
2022-10-23T22:11:33.314Z,3.87
2022-10-23T22:14:00.710Z,3.03
2022-10-23T22:16:27.845Z,3.90
2022-10-23T22:18:54.962Z,3.37
2022-10-23T22:21:22.885Z,3.83
2022-10-23T22:23:51.829Z,3.67
2022-10-23T22:26:20.622Z,3.13
2022-10-23T22:28:47.736Z,4.07
2022-10-23T22:31:15.297Z,3.80
2022-10-23T22:33:42.617Z,3.73
2022-10-23T22:36:09.794Z,3.53
2022-10-23T22:38:36.946Z,3.77
2022-10-23T22:41:05.751Z,3.83
2022-10-23T22:43:32.846Z,3.50
2022-10-23T22:46:04.991Z,3.97
2022-10-23T22:48:32.157Z,3.50
2022-10-23T22:50:59.277Z,3.73
2022-10-23T22:53:26.386Z,4.50
2022-10-23T22:55:53.578Z,3.83
2022-10-23T22:58:22.141Z,4.47
2022-10-23T23:00:49.527Z,4.30
2022-10-23T23:03:16.733Z,3.80
2022-10-23T23:05:44.436Z,3.93
2022-10-23T23:08:11.860Z,3.97
2022-10-23T23:10:39.271Z,4.10
2022-10-23T23:13:06.445Z,3.33
2022-10-23T23:15:38.946Z,3.57
2022-10-23T23:18:06.109Z,4.03
2022-10-23T23:20:33.246Z,3.13
2022-10-23T23:23:00.334Z,4.40
2022-10-23T23:25:27.477Z,3.23
2022-10-23T23:27:54.570Z,4.30
2022-10-23T23:30:21.808Z,4.17
2022-10-23T23:32:50.643Z,3.43
2022-10-23T23:35:18.048Z,4.40
2022-10-23T23:37:45.167Z,3.40
2022-10-23T23:40:12.903Z,3.90
2022-10-23T23:42:40.040Z,3.53
2022-10-23T23:45:14.755Z,4.60
2022-10-23T23:47:42.794Z,3.33
2022-10-23T23:50:11.649Z,4.40
2022-10-23T23:52:39.065Z,3.73
2022-10-23T23:55:06.379Z,4.13
2022-10-23T23:57:33.588Z,4.67
